Airfield :







YOU CAN JOIN US ON...

 
LOGIN :

Register | Disclaimer

   EN    FR    IT 

 









Legend :    VFR   Marginal VFR   IFR   Intensive IFR   Very Intensive IFR
Visi :
Ceiling :
>= 8 km
>= 3000ft
5 to 8 km
1000 to 3000 ft
1500m to 5 km
500 to 1000 ft
800 to 1500m
200 to 500 ft
< 800m
< 200 ft
Symbols :   Thunderstorms  Fog  Heavy snow  Heavy precipitations  Wind > 20 kt






- Airport Elevation : 352 ft


KAUG - Augusta State

CURRENT METAR :
  • 221453Z AUTO 07004KT 10SM CLR 09/05 A3020 RMK AO2 SLP229 T00940050 50001

EXPIRED METARs :
  • 221353Z AUTO 33006KT 10SM CLR 08/06 A3022 RMK AO2 SLP237 T00780061
  • 221253Z AUTO 33006KT 10SM CLR 06/05 A3022 RMK AO2 SLP235 T00610050

TAF KAUG
Valid from the 22 at 12:00 until the 23 at 12:00 UTC


221123Z 2212/2312 VRB03KT P6SM SCT250
FM221500 10008KT P6SM SCT150
FM230100 10008KT P6SM OVC025
FM230400 10009KT 4SM +RA OVC008



MET'MAP, your aeronautical weather chart ! - Copyright ORBIFLY December 2007 - Disclaimer

ORBIFLY MET'MAP TEAM :

Programming & Development : Alexandra Zaïnal
Concept & Development : Baudouin d'Aumeries
Co-Development & Prog : Marc-Olivier Méhu
Technical & hardware support : Manuel Goepfert

Contact : metmap@orbifly.com




SOURCES & CREDITS :

   NOAA